Time;durP1;ratioP1;P1;durP2;ratioP2;P2;SDS_P1;SDS_P2;PMS_P1;PMS_P2;Temp;Humidity;BMP_temperature;BMP_pressure;BME280_temperature;BME280_humidity;BME280_pressure;Samples;Min_cycle;Max_cycle;Signal;HPM_P1;HPM_P2
2023/05/12 00:01:50;;;;;;;;;;;13.90;88.70;;;;;;4925031;29;19922;-96
2023/05/12 00:04:20;;;;;;;;;;;13.90;88.70;;;;;;4943300;29;19916;-96
2023/05/12 00:06:59;;;;;;;;;;;13.90;88.60;;;;;;4926102;29;19912;-96
2023/05/12 00:09:35;;;;;;;;;;;14.00;88.70;;;;;;4928698;29;19899;-96
2023/05/12 00:12:25;;;;;;;;;;;13.90;89.20;;;;;;4928229;29;19915;-96
2023/05/12 00:15:06;;;;;;;;;;;13.90;89.30;;;;;;4928502;29;19911;-96
2023/05/12 00:17:38;;;;;;;;;;;13.90;89.50;;;;;;4944505;29;19911;-96
2023/05/12 00:20:15;;;;;;;;;;;13.80;89.90;;;;;;4941116;29;19911;-96
2023/05/12 00:22:45;;;;;;;;;;;13.80;89.80;;;;;;4927785;29;19950;-96
2023/05/12 00:25:25;;;;;;;;;;;13.90;89.90;;;;;;4944147;29;19934;-96
2023/05/12 00:28:09;;;;;;;;;;;13.90;89.70;;;;;;4943427;29;19915;-96
2023/05/12 00:30:45;;;;;;;;;;;13.90;89.90;;;;;;4944352;29;19915;-96
2023/05/12 00:33:16;;;;;;;;;;;13.90;89.90;;;;;;4927834;29;19914;-96
2023/05/12 00:35:48;;;;;;;;;;;13.80;89.90;;;;;;4928379;29;19959;-96
2023/05/12 00:38:36;;;;;;;;;;;13.70;90.30;;;;;;4944923;29;19911;-96
2023/05/12 00:41:15;;;;;;;;;;;13.70;90.60;;;;;;4930645;29;19900;-96
2023/05/12 00:44:04;;;;;;;;;;;13.70;90.70;;;;;;4928958;29;19914;-96
2023/05/12 00:46:38;;;;;;;;;;;13.70;90.60;;;;;;4944469;29;19950;-96
2023/05/12 00:49:11;;;;;;;;;;;13.60;90.60;;;;;;4927981;29;19899;-96
2023/05/12 00:51:39;;;;;;;;;;;13.60;90.30;;;;;;4925396;29;19962;-96
2023/05/12 00:54:34;;;;;;;;;;;13.60;90.30;;;;;;4943817;29;19923;-96
2023/05/12 00:57:06;;;;;;;;;;;13.70;90.20;;;;;;4920539;29;19900;-96
2023/05/12 00:59:44;;;;;;;;;;;13.80;89.60;;;;;;4926607;29;19986;-96
2023/05/12 01:02:13;;;;;;;;;;;13.80;89.80;;;;;;4905030;29;19908;-96
2023/05/12 01:04:47;;;;;;;;;;;13.80;89.60;;;;;;4905786;29;19919;-96
2023/05/12 01:07:30;;;;;;;;;;;13.90;89.30;;;;;;4891101;29;19916;-96
2023/05/12 01:10:09;;;;;;;;;;;13.80;89.40;;;;;;4889774;29;19896;-96
2023/05/12 01:12:42;;;;;;;;;;;13.80;89.60;;;;;;4905408;29;19919;-96
2023/05/12 02:08:26;;;;;;;;;;;13.50;90.10;;;;;;5484537;23;19910;-96
2023/05/12 02:11:18;;;;;;;;;;;13.50;90.10;;;;;;4964987;29;19926;-96
2023/05/12 02:13:51;;;;;;;;;;;13.50;90.10;;;;;;4939210;29;19907;-96
2023/05/12 02:16:30;;;;;;;;;;;13.50;90.10;;;;;;4936051;29;19910;-96
2023/05/12 03:50:00;;;;;;;;;;;13.20;92.80;;;;;;4990738;23;19949;-96
2023/05/12 03:52:31;;;;;;;;;;;13.20;92.80;;;;;;4977071;28;19961;-96
2023/05/12 04:00:24;;;;;;;;;;;13.20;93.10;;;;;;4904744;26;19935;-96
2023/05/12 04:03:17;;;;;;;;;;;13.30;93.30;;;;;;4960020;28;19934;-96
2023/05/12 04:06:09;;;;;;;;;;;13.20;93.30;;;;;;4958433;28;19966;-96
2023/05/12 04:08:50;;;;;;;;;;;13.30;93.20;;;;;;4943788;29;19958;-96
2023/05/12 06:16:25;;;;;;;;;;;13.30;93.90;;;;;;4937073;29;19998;-96
2023/05/12 06:18:55;;;;;;;;;;;13.30;93.90;;;;;;4922915;29;19943;-96
2023/05/12 06:21:33;;;;;;;;;;;13.30;93.90;;;;;;4923650;29;19911;-96
2023/05/12 06:24:03;;;;;;;;;;;13.30;94.00;;;;;;4923411;29;19899;-96
2023/05/12 06:26:29;;;;;;;;;;;13.20;94.30;;;;;;4922962;29;19915;-96
2023/05/12 06:28:56;;;;;;;;;;;13.20;94.30;;;;;;4922970;29;19911;-96
2023/05/12 06:31:22;;;;;;;;;;;13.20;94.50;;;;;;4922743;29;19962;-96
2023/05/12 06:33:49;;;;;;;;;;;13.20;94.50;;;;;;4921964;29;19915;-96
2023/05/12 06:36:18;;;;;;;;;;;13.20;94.50;;;;;;4920838;29;19911;-96
2023/05/12 06:38:50;;;;;;;;;;;13.30;94.30;;;;;;4920305;29;19911;-96
2023/05/12 06:41:16;;;;;;;;;;;13.30;94.20;;;;;;4937192;29;19921;-96
2023/05/12 06:43:45;;;;;;;;;;;13.30;94.30;;;;;;4920325;29;19922;-96
2023/05/12 06:46:11;;;;;;;;;;;13.30;94.20;;;;;;4937784;29;19911;-96
2023/05/12 06:48:47;;;;;;;;;;;13.30;94.20;;;;;;4921421;29;19920;-96
2023/05/12 06:51:25;;;;;;;;;;;13.40;94.20;;;;;;4921629;29;19937;-96
2023/05/12 06:53:53;;;;;;;;;;;13.30;94.10;;;;;;4922456;29;19918;-96
2023/05/12 06:56:20;;;;;;;;;;;13.40;94.10;;;;;;4921864;29;20363;-96
2023/05/12 06:58:48;;;;;;;;;;;13.30;94.10;;;;;;4922332;29;19900;-96
2023/05/12 07:01:22;;;;;;;;;;;13.40;93.90;;;;;;4938343;29;19912;-96
2023/05/12 07:03:52;;;;;;;;;;;13.40;94.00;;;;;;4922931;29;19915;-96
2023/05/12 07:06:26;;;;;;;;;;;13.40;93.80;;;;;;4923088;29;19915;-96
2023/05/12 07:09:04;;;;;;;;;;;13.40;93.90;;;;;;4939660;29;19919;-96
2023/05/12 07:11:35;;;;;;;;;;;13.40;93.80;;;;;;4939300;29;19899;-96
2023/05/12 07:14:05;;;;;;;;;;;13.40;93.80;;;;;;4922634;29;19954;-96
2023/05/12 07:16:35;;;;;;;;;;;13.40;93.80;;;;;;4922012;29;19911;-96
2023/05/12 07:19:07;;;;;;;;;;;13.50;93.80;;;;;;4921319;29;19911;-96
2023/05/12 07:21:42;;;;;;;;;;;13.50;93.90;;;;;;4921091;29;19911;-96
2023/05/12 07:24:12;;;;;;;;;;;13.60;93.80;;;;;;4921116;29;19919;-96
2023/05/12 07:26:43;;;;;;;;;;;13.60;93.90;;;;;;4921496;29;19915;-95
2023/05/12 07:29:09;;;;;;;;;;;13.60;93.80;;;;;;4935581;29;19915;-96
2023/05/12 07:31:38;;;;;;;;;;;13.60;93.80;;;;;;4919308;29;19911;-95
2023/05/12 07:34:05;;;;;;;;;;;13.60;93.80;;;;;;4936272;29;19918;-96
2023/05/12 07:36:34;;;;;;;;;;;13.60;93.90;;;;;;4919609;29;19919;-96
2023/05/12 07:39:03;;;;;;;;;;;13.60;93.90;;;;;;4920095;29;19903;-96
2023/05/12 07:41:32;;;;;;;;;;;13.60;93.80;;;;;;4918332;29;19982;-96
2023/05/12 07:43:58;;;;;;;;;;;13.60;93.70;;;;;;4919961;29;19919;-96
2023/05/12 07:46:28;;;;;;;;;;;13.70;93.80;;;;;;4920015;29;19940;-96
2023/05/12 07:48:54;;;;;;;;;;;13.70;93.90;;;;;;4920377;29;19919;-96
2023/05/12 07:51:23;;;;;;;;;;;13.80;93.80;;;;;;4920735;29;19911;-96
2023/05/12 07:53:49;;;;;;;;;;;13.80;93.80;;;;;;4920038;29;19911;-96
2023/05/12 07:56:20;;;;;;;;;;;13.80;93.90;;;;;;4921004;29;19918;-96
2023/05/12 07:58:47;;;;;;;;;;;13.80;93.80;;;;;;4938570;29;19912;-96
2023/05/12 08:01:19;;;;;;;;;;;13.80;93.90;;;;;;4923276;29;19919;-96
2023/05/12 08:03:50;;;;;;;;;;;13.80;93.80;;;;;;4939956;29;19943;-96
2023/05/12 08:06:20;;;;;;;;;;;13.80;94.00;;;;;;4938783;29;19934;-96
2023/05/12 08:08:57;;;;;;;;;;;13.80;94.10;;;;;;4919127;29;19918;-96
2023/05/12 08:11:27;;;;;;;;;;;13.70;94.20;;;;;;4922415;29;19978;-96
2023/05/12 08:13:59;;;;;;;;;;;13.80;94.30;;;;;;4922584;29;19911;-96
2023/05/12 08:16:30;;;;;;;;;;;13.90;94.30;;;;;;4940642;29;19926;-96
2023/05/12 08:19:02;;;;;;;;;;;13.90;94.30;;;;;;4941094;29;19903;-96
2023/05/12 08:21:37;;;;;;;;;;;13.90;94.30;;;;;;4941942;29;19939;-96
2023/05/12 08:24:15;;;;;;;;;;;13.90;94.10;;;;;;4955000;29;19915;-96
2023/05/12 08:26:42;;;;;;;;;;;13.90;94.10;;;;;;4961498;29;19930;-96
2023/05/12 08:29:14;;;;;;;;;;;13.90;93.90;;;;;;4945725;29;19911;-96
2023/05/12 08:31:48;;;;;;;;;;;13.90;93.90;;;;;;4962135;29;19911;-96
2023/05/12 08:34:19;;;;;;;;;;;14.00;93.90;;;;;;4945196;29;19926;-96
2023/05/12 08:36:59;;;;;;;;;;;;;;;;;;;;;
2023/05/12 08:39:32;;;;;;;;;;;14.10;93.80;;;;;;4962487;29;19943;-96
2023/05/12 08:41:59;;;;;;;;;;;14.10;93.90;;;;;;4945846;29;19914;-96
2023/05/12 08:44:40;;;;;;;;;;;14.10;93.70;;;;;;4962336;29;19918;-96
2023/05/12 08:47:10;;;;;;;;;;;14.10;93.60;;;;;;4945689;28;19919;-96
2023/05/12 08:49:38;;;;;;;;;;;14.20;93.50;;;;;;4943083;29;19911;-96
2023/05/12 08:52:05;;;;;;;;;;;14.20;93.50;;;;;;4942985;29;19931;-96
2023/05/12 08:54:33;;;;;;;;;;;14.20;93.50;;;;;;4942613;29;19918;-96
2023/05/12 08:57:03;;;;;;;;;;;14.30;93.50;;;;;;4960604;29;19899;-96
2023/05/12 08:59:33;;;;;;;;;;;14.30;93.40;;;;;;4960317;29;19942;-96
2023/05/12 09:02:03;;;;;;;;;;;14.30;93.30;;;;;;4944178;29;19918;-96
2023/05/12 09:04:35;;;;;;;;;;;14.30;93.00;;;;;;4944461;29;19954;-96
2023/05/12 09:07:05;;;;;;;;;;;14.30;92.90;;;;;;4943892;29;19895;-96
2023/05/12 09:09:33;;;;;;;;;;;14.30;92.90;;;;;;4928892;29;19922;-96
2023/05/12 09:12:02;;;;;;;;;;;14.30;92.90;;;;;;4944584;29;19918;-96
2023/05/12 09:14:33;;;;;;;;;;;14.40;92.70;;;;;;4957115;29;19934;-96
2023/05/12 09:17:05;;;;;;;;;;;14.40;92.80;;;;;;4924722;29;19950;-96
2023/05/12 09:19:34;;;;;;;;;;;14.40;92.80;;;;;;4925062;29;19911;-96
2023/05/12 09:22:13;;;;;;;;;;;14.40;92.90;;;;;;4940986;29;19935;-96
2023/05/12 09:24:40;;;;;;;;;;;14.40;92.70;;;;;;4909670;29;19923;-96
2023/05/12 09:27:10;;;;;;;;;;;14.30;92.70;;;;;;4924304;29;19911;-96
2023/05/12 09:29:46;;;;;;;;;;;14.30;92.80;;;;;;4924117;29;19942;-96
2023/05/12 09:32:18;;;;;;;;;;;14.20;93.10;;;;;;4923786;29;19918;-96
2023/05/12 09:34:45;;;;;;;;;;;14.20;93.20;;;;;;4924517;29;19935;-96
2023/05/12 09:37:15;;;;;;;;;;;14.10;93.30;;;;;;4938371;29;19919;-96
2023/05/12 09:39:43;;;;;;;;;;;14.20;93.10;;;;;;4924027;29;19911;-96
2023/05/12 09:42:11;;;;;;;;;;;14.20;92.90;;;;;;4924125;29;19902;-96
2023/05/12 09:44:48;;;;;;;;;;;14.30;92.90;;;;;;4924391;29;19951;-96
2023/05/12 09:47:17;;;;;;;;;;;14.30;93.10;;;;;;4925018;29;19915;-96
2023/05/12 09:49:48;;;;;;;;;;;14.30;92.90;;;;;;4923223;29;19911;-96
2023/05/12 09:52:14;;;;;;;;;;;14.40;92.90;;;;;;4924402;29;19911;-96
2023/05/12 09:54:44;;;;;;;;;;;14.40;93.00;;;;;;4924565;29;19946;-96
2023/05/12 09:57:18;;;;;;;;;;;14.30;92.70;;;;;;4923042;29;19943;-96
2023/05/12 09:59:44;;;;;;;;;;;14.30;92.70;;;;;;4924147;29;19942;-96
2023/05/12 10:02:17;;;;;;;;;;;14.40;92.90;;;;;;4923817;29;19911;-96
2023/05/12 10:04:57;;;;;;;;;;;14.40;92.90;;;;;;4922446;29;19915;-96
2023/05/12 10:07:26;;;;;;;;;;;14.40;93.20;;;;;;4924370;29;19911;-96
2023/05/12 10:09:55;;;;;;;;;;;14.40;93.10;;;;;;4924162;29;19907;-96
2023/05/12 10:12:23;;;;;;;;;;;14.40;93.20;;;;;;4940413;29;19901;-96
2023/05/12 10:14:53;;;;;;;;;;;14.40;93.50;;;;;;4929646;29;19922;-96
2023/05/12 10:17:23;;;;;;;;;;;14.40;93.70;;;;;;4958683;29;19915;-96
2023/05/12 10:19:53;;;;;;;;;;;14.40;93.70;;;;;;4942505;29;19915;-96
2023/05/12 10:22:24;;;;;;;;;;;14.40;93.60;;;;;;4958464;29;19919;-96
2023/05/12 10:24:52;;;;;;;;;;;14.40;93.60;;;;;;4958451;29;19915;-96
2023/05/12 10:27:20;;;;;;;;;;;14.40;93.40;;;;;;4959060;29;19922;-96
2023/05/12 10:29:57;;;;;;;;;;;14.40;93.40;;;;;;4959845;29;19902;-96
2023/05/12 10:32:28;;;;;;;;;;;14.40;93.60;;;;;;4960724;29;19966;-96
2023/05/12 10:35:08;;;;;;;;;;;14.40;93.30;;;;;;4959493;29;19934;-96
2023/05/12 10:37:47;;;;;;;;;;;14.40;92.90;;;;;;4943754;29;19895;-96
2023/05/12 10:40:23;;;;;;;;;;;14.40;92.60;;;;;;4942508;29;19911;-96
2023/05/12 10:42:57;;;;;;;;;;;14.40;92.30;;;;;;4959306;29;19923;-96
2023/05/12 10:45:30;;;;;;;;;;;14.40;92.50;;;;;;4959055;29;19970;-96
2023/05/12 10:48:06;;;;;;;;;;;14.50;92.60;;;;;;4957590;29;19911;-96
2023/05/12 10:50:33;;;;;;;;;;;14.50;92.90;;;;;;4957259;29;19911;-96
2023/05/12 10:53:03;;;;;;;;;;;14.60;93.00;;;;;;4957998;29;19915;-96
2023/05/12 10:55:50;;;;;;;;;;;14.80;93.10;;;;;;4958666;29;19895;-96
2023/05/12 10:58:20;;;;;;;;;;;14.90;92.70;;;;;;4959611;29;19926;-96
2023/05/12 11:01:03;;;;;;;;;;;15.20;92.60;;;;;;4959972;29;19944;-96
2023/05/12 11:03:33;;;;;;;;;;;15.40;91.70;;;;;;4960085;29;19926;-96
2023/05/12 11:06:02;;;;;;;;;;;15.70;91.30;;;;;;4960048;29;19903;-96
2023/05/12 11:08:33;;;;;;;;;;;15.80;89.10;;;;;;4960120;29;19915;-96
2023/05/12 11:11:08;;;;;;;;;;;15.90;88.70;;;;;;4912918;29;19902;-96
2023/05/12 11:13:46;;;;;;;;;;;15.90;88.50;;;;;;4959727;29;19911;-96
2023/05/12 11:16:15;;;;;;;;;;;15.90;88.00;;;;;;4959500;29;19918;-96
2023/05/12 11:19:05;;;;;;;;;;;16.10;88.20;;;;;;4960154;28;19902;-96
2023/05/12 11:21:36;;;;;;;;;;;16.30;88.40;;;;;;4956266;29;19911;-96
2023/05/12 11:24:03;;;;;;;;;;;16.50;87.20;;;;;;4958290;29;19954;-96
2023/05/12 11:26:33;;;;;;;;;;;16.70;86.30;;;;;;4957916;29;19962;-96
2023/05/12 11:29:06;;;;;;;;;;;16.80;86.10;;;;;;4956654;29;19982;-96
2023/05/12 11:31:32;;;;;;;;;;;17.00;85.90;;;;;;4936554;29;19958;-96
2023/05/12 11:34:08;;;;;;;;;;;17.20;85.50;;;;;;4935272;29;19923;-96
2023/05/12 11:36:41;;;;;;;;;;;17.30;84.60;;;;;;4951398;29;19911;-96
2023/05/12 11:39:20;;;;;;;;;;;17.40;83.80;;;;;;4952713;29;19918;-96
2023/05/12 11:41:50;;;;;;;;;;;17.50;84.00;;;;;;4952873;29;19914;-96
2023/05/12 11:44:20;;;;;;;;;;;17.60;84.70;;;;;;4935348;29;19963;-96
2023/05/12 11:47:16;;;;;;;;;;;17.80;84.20;;;;;;4953420;29;19911;-96
2023/05/12 11:49:46;;;;;;;;;;;17.90;83.20;;;;;;4943629;29;19911;-96
2023/05/12 11:52:12;;;;;;;;;;;18.00;82.10;;;;;;4951319;29;19987;-96
2023/05/12 11:54:39;;;;;;;;;;;18.20;82.20;;;;;;4949799;29;19990;-96
2023/05/12 11:57:05;;;;;;;;;;;18.30;81.60;;;;;;4950111;29;19911;-96
2023/05/12 11:59:31;;;;;;;;;;;18.30;80.70;;;;;;4948920;29;19917;-96
2023/05/12 12:01:58;;;;;;;;;;;18.30;80.60;;;;;;4953248;29;19986;-96
2023/05/12 12:04:40;;;;;;;;;;;18.30;78.50;;;;;;4937377;29;19970;-96
2023/05/12 12:07:09;;;;;;;;;;;18.50;79.20;;;;;;4939546;29;19918;-96
2023/05/12 12:09:36;;;;;;;;;;;18.90;78.60;;;;;;4956810;29;19935;-96
2023/05/12 12:12:04;;;;;;;;;;;19.00;76.60;;;;;;4955503;29;19911;-96
2023/05/12 12:14:32;;;;;;;;;;;18.80;76.50;;;;;;4953245;29;19923;-96
2023/05/12 12:16:59;;;;;;;;;;;18.70;76.60;;;;;;4921602;29;19919;-96
2023/05/12 12:19:28;;;;;;;;;;;18.50;77.30;;;;;;4920533;29;20047;-96
2023/05/12 12:21:57;;;;;;;;;;;18.70;77.10;;;;;;4922087;29;19936;-96
2023/05/12 12:24:23;;;;;;;;;;;18.70;78.50;;;;;;4922566;29;19915;-96
2023/05/12 12:26:52;;;;;;;;;;;18.70;77.70;;;;;;4923235;29;20057;-96
2023/05/12 12:29:18;;;;;;;;;;;18.60;77.60;;;;;;4921872;29;19919;-96
2023/05/12 12:31:53;;;;;;;;;;;18.30;77.50;;;;;;4937958;29;19911;-96
2023/05/12 12:34:19;;;;;;;;;;;18.20;77.70;;;;;;4923771;29;19915;-96
2023/05/12 12:36:47;;;;;;;;;;;18.00;78.00;;;;;;4936661;29;19912;-96
2023/05/12 12:39:13;;;;;;;;;;;18.10;77.60;;;;;;4922552;29;19912;-96
2023/05/12 12:41:40;;;;;;;;;;;18.20;78.00;;;;;;4937181;29;19918;-96
2023/05/12 12:44:06;;;;;;;;;;;17.90;78.80;;;;;;4920944;29;19922;-96
2023/05/12 12:46:35;;;;;;;;;;;18.00;78.90;;;;;;4936203;29;19911;-96
2023/05/12 12:49:02;;;;;;;;;;;17.80;77.60;;;;;;4921704;29;19915;-96
2023/05/12 12:51:31;;;;;;;;;;;17.90;78.40;;;;;;4922116;29;19935;-96
2023/05/12 12:53:57;;;;;;;;;;;17.80;77.90;;;;;;4922074;29;19911;-96
2023/05/12 12:56:24;;;;;;;;;;;17.80;77.50;;;;;;4921334;29;19911;-96
2023/05/12 12:58:58;;;;;;;;;;;17.60;78.00;;;;;;4920432;29;19911;-96
2023/05/12 13:01:24;;;;;;;;;;;17.50;78.40;;;;;;4916476;29;19918;-96
2023/05/12 13:03:50;;;;;;;;;;;17.50;78.10;;;;;;4925601;29;20001;-96
2023/05/12 13:06:17;;;;;;;;;;;17.30;78.20;;;;;;4926037;29;19911;-96
2023/05/12 13:08:42;;;;;;;;;;;17.30;78.60;;;;;;4925329;29;19915;-95
2023/05/12 13:11:08;;;;;;;;;;;17.30;79.70;;;;;;4923012;29;19935;-96
2023/05/12 13:13:37;;;;;;;;;;;17.30;79.60;;;;;;4924323;29;19915;-96
2023/05/12 13:16:03;;;;;;;;;;;17.30;80.70;;;;;;4924118;29;19930;-95
2023/05/12 13:18:28;;;;;;;;;;;17.40;80.10;;;;;;4923002;29;19912;-96
2023/05/12 13:20:54;;;;;;;;;;;17.50;80.00;;;;;;4935462;29;19911;-96
2023/05/12 13:23:25;;;;;;;;;;;17.70;80.10;;;;;;4934625;29;19915;-96
2023/05/12 13:25:51;;;;;;;;;;;17.80;79.00;;;;;;4916786;29;19946;-96
2023/05/12 13:28:17;;;;;;;;;;;18.30;78.70;;;;;;4932661;29;19911;-96
2023/05/12 13:30:43;;;;;;;;;;;18.80;78.10;;;;;;4916317;29;19935;-96
2023/05/12 13:33:12;;;;;;;;;;;19.90;74.70;;;;;;4928063;29;19946;-96
2023/05/12 13:35:40;;;;;;;;;;;20.90;71.90;;;;;;4928774;29;20006;-96
2023/05/12 13:38:06;;;;;;;;;;;21.50;67.70;;;;;;4927250;29;19911;-96
2023/05/12 13:40:32;;;;;;;;;;;21.30;66.50;;;;;;4911444;29;19919;-96
2023/05/12 13:43:01;;;;;;;;;;;21.40;67.50;;;;;;4930970;29;19917;-96
2023/05/12 13:45:28;;;;;;;;;;;21.20;66.90;;;;;;4933142;29;19911;-96
2023/05/12 13:47:56;;;;;;;;;;;20.50;70.80;;;;;;4918377;29;19962;-96
2023/05/12 13:50:25;;;;;;;;;;;20.40;71.40;;;;;;4923139;29;19896;-96
2023/05/12 13:52:52;;;;;;;;;;;20.20;71.60;;;;;;4923913;29;19917;-96
2023/05/12 13:55:17;;;;;;;;;;;20.10;71.90;;;;;;4925278;29;19946;-96
2023/05/12 13:57:43;;;;;;;;;;;19.80;73.20;;;;;;4924998;29;19976;-96
2023/05/12 14:00:09;;;;;;;;;;;19.80;72.90;;;;;;4925038;29;19915;-96
2023/05/12 14:02:35;;;;;;;;;;;19.70;73.20;;;;;;4912059;29;19961;-96
2023/05/12 14:05:00;;;;;;;;;;;20.00;72.50;;;;;;4926888;29;20006;-96
2023/05/12 14:07:27;;;;;;;;;;;20.80;70.80;;;;;;4928042;29;19935;-96
2023/05/12 14:10:01;;;;;;;;;;;21.50;66.10;;;;;;4931845;29;19895;-96
2023/05/12 14:12:29;;;;;;;;;;;21.40;66.40;;;;;;4925828;29;19946;-96
2023/05/12 14:15:14;;;;;;;;;;;21.10;66.90;;;;;;4959795;23;19931;-96
2023/05/12 14:17:49;;;;;;;;;;;21.60;65.90;;;;;;4954624;29;19915;-96
2023/05/12 14:20:15;;;;;;;;;;;22.10;65.50;;;;;;4953024;29;19922;-96
2023/05/12 14:22:41;;;;;;;;;;;22.70;65.30;;;;;;4970968;28;19914;-96
2023/05/12 14:25:10;;;;;;;;;;;22.80;63.70;;;;;;4953187;29;19957;-96
2023/05/12 14:27:36;;;;;;;;;;;22.40;64.50;;;;;;4950822;29;19948;-96
2023/05/12 14:30:02;;;;;;;;;;;22.30;64.40;;;;;;4947069;29;19910;-96
2023/05/12 14:32:28;;;;;;;;;;;22.00;65.30;;;;;;4944703;29;19915;-96
2023/05/12 14:34:54;;;;;;;;;;;22.60;64.60;;;;;;4952164;29;19957;-96
2023/05/12 14:37:19;;;;;;;;;;;23.30;61.50;;;;;;4931155;29;19911;-96
2023/05/12 14:39:45;;;;;;;;;;;23.30;62.10;;;;;;4932628;29;19966;-96
2023/05/12 14:42:11;;;;;;;;;;;23.70;61.50;;;;;;4936715;29;19911;-96
2023/05/12 14:44:37;;;;;;;;;;;24.10;58.90;;;;;;4930462;29;19922;-96
2023/05/12 14:47:03;;;;;;;;;;;23.30;60.00;;;;;;4932830;29;19912;-96
2023/05/12 14:49:28;;;;;;;;;;;22.90;61.40;;;;;;4947227;29;19982;-96
2023/05/12 14:51:54;;;;;;;;;;;22.60;62.10;;;;;;4929687;29;19949;-96
2023/05/12 14:54:25;;;;;;;;;;;22.00;63.80;;;;;;4949928;29;19910;-96
2023/05/12 14:56:51;;;;;;;;;;;21.60;65.20;;;;;;4942407;29;19895;-96
2023/05/12 15:01:58;;;;;;;;;;;20.80;68.40;;;;;;5502148;23;19927;-96
2023/05/12 15:04:28;;;;;;;;;;;20.30;69.30;;;;;;4941302;29;19919;-96
2023/05/12 15:06:54;;;;;;;;;;;20.10;69.90;;;;;;4924458;29;19915;-96
2023/05/12 15:09:20;;;;;;;;;;;20.00;71.20;;;;;;4941401;29;19911;-96
2023/05/12 15:11:50;;;;;;;;;;;20.70;69.50;;;;;;4942154;29;19946;-96
2023/05/12 15:14:17;;;;;;;;;;;21.30;67.10;;;;;;4943601;29;19911;-96
2023/05/12 15:16:48;;;;;;;;;;;21.70;65.80;;;;;;4943588;29;19918;-96
2023/05/12 15:19:19;;;;;;;;;;;21.70;66.00;;;;;;4943599;29;20013;-96
2023/05/12 15:21:48;;;;;;;;;;;21.30;66.20;;;;;;4943628;29;19929;-96
2023/05/12 15:24:29;;;;;;;;;;;21.10;67.70;;;;;;4943457;29;19914;-96
2023/05/12 15:27:01;;;;;;;;;;;21.00;68.40;;;;;;4942614;29;19911;-96
2023/05/12 15:29:31;;;;;;;;;;;21.30;67.20;;;;;;4943719;29;19942;-96
2023/05/12 15:34:49;;;;;;;;;;;22.10;65.40;;;;;;4925410;29;19930;-96
2023/05/12 15:37:17;;;;;;;;;;;22.40;64.00;;;;;;4924883;29;19998;-96
2023/05/12 15:39:53;;;;;;;;;;;22.30;64.00;;;;;;4922653;29;19943;-96
2023/05/12 15:42:22;;;;;;;;;;;22.40;64.30;;;;;;4923873;29;19911;-96
2023/05/12 15:44:47;;;;;;;;;;;22.20;63.40;;;;;;4925021;29;19963;-96
2023/05/12 15:47:13;;;;;;;;;;;22.00;63.80;;;;;;4911085;29;19967;-96
2023/05/12 15:49:39;;;;;;;;;;;21.80;64.90;;;;;;4929047;29;19911;-96
2023/05/12 15:52:04;;;;;;;;;;;21.60;65.30;;;;;;4911864;29;19934;-96
2023/05/12 15:54:30;;;;;;;;;;;21.20;66.90;;;;;;4927414;29;19911;-96
2023/05/12 15:56:56;;;;;;;;;;;20.40;68.60;;;;;;4926102;29;19919;-96
2023/05/12 15:59:22;;;;;;;;;;;20.20;69.40;;;;;;4907140;29;19967;-96
2023/05/12 16:01:50;;;;;;;;;;;20.00;70.30;;;;;;4905252;29;19983;-96
2023/05/12 16:04:16;;;;;;;;;;;19.80;70.80;;;;;;4921281;29;19958;-96
2023/05/12 16:06:42;;;;;;;;;;;19.60;71.30;;;;;;4906545;29;19912;-96
2023/05/12 16:09:08;;;;;;;;;;;19.30;72.70;;;;;;4907702;29;19918;-96
2023/05/12 16:11:34;;;;;;;;;;;19.30;73.10;;;;;;4906993;29;19912;-96
2023/05/12 16:14:01;;;;;;;;;;;19.20;73.70;;;;;;4907762;29;19911;-96
2023/05/12 16:16:27;;;;;;;;;;;19.10;74.10;;;;;;4908003;29;20285;-96
2023/05/12 16:18:52;;;;;;;;;;;19.00;75.10;;;;;;4909147;29;19994;-96
2023/05/12 16:21:18;;;;;;;;;;;18.80;76.70;;;;;;4909510;29;19916;-96
2023/05/12 16:23:44;;;;;;;;;;;18.40;79.20;;;;;;4912509;29;19922;-96
2023/05/12 16:26:10;;;;;;;;;;;18.20;81.00;;;;;;4924696;29;20379;-96
2023/05/12 16:28:36;;;;;;;;;;;17.80;84.10;;;;;;4907038;29;19912;-96
2023/05/12 16:31:02;;;;;;;;;;;17.50;83.50;;;;;;4908948;29;19911;-96
2023/05/12 16:33:28;;;;;;;;;;;17.20;85.10;;;;;;4908375;29;19934;-96
2023/05/12 16:35:56;;;;;;;;;;;17.00;86.00;;;;;;4909485;29;19918;-96
2023/05/12 16:38:22;;;;;;;;;;;16.60;86.00;;;;;;4904056;29;19912;-96
2023/05/12 16:40:48;;;;;;;;;;;15.60;88.30;;;;;;4919544;29;19950;-96
2023/05/12 16:43:13;;;;;;;;;;;15.00;90.40;;;;;;4902779;29;19918;-96
2023/05/12 16:45:39;;;;;;;;;;;14.60;88.30;;;;;;4907263;29;19911;-96
2023/05/12 16:48:05;;;;;;;;;;;14.50;89.30;;;;;;4910505;29;19934;-96
2023/05/12 16:50:31;;;;;;;;;;;14.40;89.10;;;;;;4926693;29;19911;-95
2023/05/12 16:52:56;;;;;;;;;;;14.30;88.80;;;;;;4911241;29;20410;-96
2023/05/12 16:55:22;;;;;;;;;;;14.30;88.70;;;;;;4926586;29;19911;-96
2023/05/12 16:57:48;;;;;;;;;;;14.40;91.00;;;;;;4910520;29;19915;-96
2023/05/12 17:00:14;;;;;;;;;;;14.30;90.60;;;;;;4911014;29;19911;-96
2023/05/12 17:02:40;;;;;;;;;;;14.20;90.80;;;;;;4911794;29;19911;-96
2023/05/12 17:05:06;;;;;;;;;;;14.00;90.90;;;;;;4911789;29;19939;-96
2023/05/12 17:07:34;;;;;;;;;;;13.80;91.00;;;;;;4913917;29;19935;-96
2023/05/12 17:10:13;;;;;;;;;;;13.70;91.10;;;;;;4915731;29;19978;-96
2023/05/12 17:12:38;;;;;;;;;;;13.60;92.20;;;;;;4932980;29;20387;-96
2023/05/12 17:15:06;;;;;;;;;;;13.70;93.00;;;;;;4930941;29;19911;-96
2023/05/12 17:17:32;;;;;;;;;;;13.80;93.60;;;;;;4913576;29;19966;-96
2023/05/12 17:19:58;;;;;;;;;;;13.70;93.70;;;;;;4915839;29;19926;-96
2023/05/12 17:22:24;;;;;;;;;;;13.70;93.40;;;;;;4914711;29;19978;-96
2023/05/12 17:24:50;;;;;;;;;;;13.60;92.70;;;;;;4928051;29;19915;-96
2023/05/12 17:27:15;;;;;;;;;;;13.40;91.90;;;;;;4911204;29;19911;-95
2023/05/12 17:29:41;;;;;;;;;;;13.30;91.40;;;;;;4911053;29;19912;-96
2023/05/12 17:32:07;;;;;;;;;;;13.20;91.20;;;;;;4913940;29;19946;-96
2023/05/12 17:34:33;;;;;;;;;;;13.10;91.10;;;;;;4913684;29;19950;-96
2023/05/12 17:37:03;;;;;;;;;;;13.00;90.20;;;;;;4915191;29;19915;-96
2023/05/12 17:39:29;;;;;;;;;;;12.90;90.60;;;;;;4931280;29;19915;-96
2023/05/12 17:41:54;;;;;;;;;;;13.00;91.10;;;;;;4915504;29;19957;-96
2023/05/12 17:44:20;;;;;;;;;;;12.90;91.20;;;;;;4917562;29;20398;-96
2023/05/12 17:46:46;;;;;;;;;;;12.90;91.20;;;;;;4917711;29;19984;-96
2023/05/12 17:49:12;;;;;;;;;;;12.90;91.30;;;;;;4931717;29;19911;-96
2023/05/12 17:51:38;;;;;;;;;;;13.00;91.60;;;;;;4915838;29;19936;-96
2023/05/12 17:54:04;;;;;;;;;;;13.00;92.00;;;;;;4916186;29;20401;-96
2023/05/12 17:56:30;;;;;;;;;;;13.00;92.20;;;;;;4916898;29;19911;-96
2023/05/12 17:58:55;;;;;;;;;;;13.10;92.70;;;;;;4916178;29;19959;-96
2023/05/12 18:01:21;;;;;;;;;;;13.20;91.90;;;;;;4933810;29;19918;-96
2023/05/12 18:03:47;;;;;;;;;;;13.10;91.50;;;;;;4919427;29;19915;-96
2023/05/12 18:06:14;;;;;;;;;;;13.00;91.40;;;;;;4920185;29;19912;-96
2023/05/12 18:08:40;;;;;;;;;;;13.00;91.60;;;;;;4937030;29;19911;-96
2023/05/12 18:11:06;;;;;;;;;;;12.90;91.90;;;;;;4920661;29;19935;-96
2023/05/12 18:13:35;;;;;;;;;;;13.00;91.50;;;;;;4919795;29;19919;-96
2023/05/12 18:16:07;;;;;;;;;;;13.00;90.80;;;;;;4919430;29;20372;-96
2023/05/12 18:18:34;;;;;;;;;;;13.20;91.10;;;;;;4938221;29;19952;-96
2023/05/12 18:21:00;;;;;;;;;;;13.10;91.50;;;;;;4920777;29;19943;-96
2023/05/12 18:23:26;;;;;;;;;;;13.20;91.70;;;;;;4920616;29;19911;-96
2023/05/12 18:26:02;;;;;;;;;;;13.20;92.20;;;;;;4920924;29;19918;-96
2023/05/12 18:28:28;;;;;;;;;;;13.20;92.60;;;;;;4921259;29;19911;-96
2023/05/12 18:30:55;;;;;;;;;;;13.30;92.70;;;;;;4936927;29;19935;-96
2023/05/12 18:33:21;;;;;;;;;;;13.30;92.70;;;;;;4920781;29;19923;-96
2023/05/12 18:35:51;;;;;;;;;;;13.20;92.90;;;;;;4921028;29;19970;-96
2023/05/12 18:38:18;;;;;;;;;;;13.30;92.90;;;;;;4921280;29;19930;-96
2023/05/12 18:40:44;;;;;;;;;;;13.30;93.00;;;;;;4936050;29;19940;-96
2023/05/12 18:43:10;;;;;;;;;;;13.40;92.70;;;;;;4933761;29;20319;-96
2023/05/12 18:45:36;;;;;;;;;;;13.40;92.20;;;;;;4936083;29;19918;-96
2023/05/12 18:48:03;;;;;;;;;;;13.40;92.10;;;;;;4936834;29;19918;-96
2023/05/12 18:50:29;;;;;;;;;;;13.40;92.00;;;;;;4935661;29;19986;-96
2023/05/12 18:52:55;;;;;;;;;;;13.50;91.70;;;;;;4918887;29;19911;-96
2023/05/12 18:55:21;;;;;;;;;;;13.60;91.70;;;;;;4919437;29;19919;-96
2023/05/12 18:57:54;;;;;;;;;;;13.50;91.60;;;;;;4918958;29;20005;-96
2023/05/12 19:00:26;;;;;;;;;;;13.50;91.50;;;;;;4917899;29;19928;-96
2023/05/12 19:02:54;;;;;;;;;;;13.60;91.30;;;;;;4917427;29;19986;-96
2023/05/12 19:05:20;;;;;;;;;;;13.50;91.20;;;;;;4918835;29;19915;-96
2023/05/12 19:07:47;;;;;;;;;;;13.40;91.40;;;;;;4934322;29;19974;-96
2023/05/12 19:10:15;;;;;;;;;;;13.40;91.30;;;;;;4918263;29;19911;-96
2023/05/12 19:12:53;;;;;;;;;;;13.40;91.10;;;;;;4918107;29;19912;-96
2023/05/12 19:15:22;;;;;;;;;;;13.40;91.00;;;;;;4934045;29;19915;-96